createdAt,value
2023-01-06T00:01:15.571Z,8.26
2023-01-06T00:03:42.437Z,8.23
2023-01-06T00:06:11.283Z,8.23
2023-01-06T00:08:38.024Z,8.22
2023-01-06T00:11:12.951Z,8.25
2023-01-06T00:13:40.525Z,8.24
2023-01-06T00:16:09.883Z,8.18
2023-01-06T00:18:36.441Z,8.18
2023-01-06T00:21:03.985Z,8.17
2023-01-06T00:23:30.438Z,8.20
2023-01-06T00:25:56.887Z,8.20
2023-01-06T00:28:23.427Z,8.26
2023-01-06T00:30:49.879Z,8.28
2023-01-06T00:33:16.344Z,8.26
2023-01-06T00:35:42.889Z,8.30
2023-01-06T00:38:09.386Z,8.32
2023-01-06T00:40:37.081Z,8.30
2023-01-06T00:43:04.474Z,8.28
2023-01-06T00:45:31.416Z,8.27
2023-01-06T00:47:58.025Z,8.24
2023-01-06T00:50:24.679Z,8.19
2023-01-06T00:52:51.244Z,8.16
2023-01-06T00:55:17.755Z,8.15
2023-01-06T00:57:44.233Z,8.14
2023-01-06T01:00:12.568Z,8.14
2023-01-06T01:02:39.054Z,8.15
2023-01-06T01:05:05.716Z,8.11
2023-01-06T01:07:32.135Z,8.05
2023-01-06T01:09:58.586Z,8.05
2023-01-06T01:12:25.066Z,8.08
2023-01-06T01:14:54.183Z,8.12
2023-01-06T01:17:29.104Z,8.16
2023-01-06T01:19:57.672Z,8.16
2023-01-06T01:22:25.577Z,8.15
2023-01-06T01:24:51.986Z,8.18
2023-01-06T01:27:18.556Z,8.21
2023-01-06T01:29:45.345Z,8.26
2023-01-06T01:32:12.111Z,8.32
2023-01-06T01:34:38.752Z,8.33
2023-01-06T01:37:05.255Z,8.27
2023-01-06T01:39:32.196Z,8.23
2023-01-06T01:41:59.000Z,8.21
2023-01-06T01:44:55.356Z,8.21
2023-01-06T01:47:27.267Z,8.22
2023-01-06T01:49:57.906Z,8.19
2023-01-06T01:52:25.742Z,8.23
2023-01-06T01:54:55.130Z,8.27
2023-01-06T01:57:27.968Z,8.28
2023-01-06T01:59:55.609Z,8.24
2023-01-06T02:02:23.254Z,8.23
2023-01-06T02:04:54.355Z,8.23
2023-01-06T02:07:25.097Z,8.22
2023-01-06T02:10:02.399Z,8.22
2023-01-06T02:12:31.687Z,8.22
2023-01-06T02:14:58.181Z,8.24
2023-01-06T02:18:02.676Z,8.26
2023-01-06T02:20:38.879Z,8.28
2023-01-06T02:23:24.086Z,8.29
2023-01-06T02:26:28.204Z,8.32
2023-01-06T02:29:29.076Z,8.32
2023-01-06T02:32:15.093Z,8.31
2023-01-06T02:35:00.504Z,8.28
2023-01-06T02:37:45.745Z,8.28
2023-01-06T02:40:15.558Z,8.31
2023-01-06T02:43:00.881Z,8.32
2023-01-06T02:45:52.596Z,8.34
2023-01-06T02:48:48.665Z,8.35
2023-01-06T02:51:24.543Z,8.36
2023-01-06T02:54:08.565Z,8.37
2023-01-06T02:56:45.456Z,8.38
2023-01-06T02:59:23.315Z,8.38
2023-01-06T03:01:53.191Z,8.38
2023-01-06T03:04:27.728Z,8.37
2023-01-06T03:06:58.435Z,8.30
2023-01-06T03:09:31.479Z,8.32
2023-01-06T03:12:02.545Z,8.31
2023-01-06T03:14:43.629Z,8.30
2023-01-06T03:17:10.615Z,8.28
2023-01-06T03:19:37.503Z,8.28
2023-01-06T03:22:08.051Z,8.26
2023-01-06T03:24:35.817Z,8.21
2023-01-06T03:27:03.697Z,8.21
2023-01-06T03:29:30.380Z,8.19
2023-01-06T03:32:18.367Z,8.18
2023-01-06T03:35:02.054Z,8.15
2023-01-06T03:37:41.140Z,8.17
2023-01-06T03:40:25.830Z,8.17
2023-01-06T03:43:16.291Z,8.16
2023-01-06T03:45:56.656Z,8.13
2023-01-06T03:48:51.165Z,8.13
2023-01-06T03:51:39.450Z,8.10
2023-01-06T03:54:27.897Z,8.10
2023-01-06T03:57:12.724Z,8.10
2023-01-06T03:59:53.714Z,8.10
2023-01-06T04:02:22.059Z,8.09
2023-01-06T04:05:09.741Z,8.11
2023-01-06T04:07:38.673Z,8.11
2023-01-06T04:10:07.029Z,8.11
2023-01-06T04:12:39.881Z,8.10
2023-01-06T04:15:16.289Z,8.10
2023-01-06T04:17:45.535Z,8.12
2023-01-06T04:20:17.003Z,8.11
2023-01-06T04:22:44.769Z,8.11
2023-01-06T04:25:11.760Z,8.11
2023-01-06T04:27:40.050Z,8.09
2023-01-06T04:30:07.792Z,8.10
2023-01-06T04:32:34.296Z,8.10
2023-01-06T04:35:05.129Z,8.11
2023-01-06T04:37:31.604Z,8.10
2023-01-06T04:39:57.992Z,8.08
2023-01-06T04:42:24.412Z,8.04
2023-01-06T04:44:50.807Z,8.01
2023-01-06T04:47:17.203Z,7.93
2023-01-06T04:49:43.657Z,7.86
2023-01-06T04:52:10.077Z,7.85
2023-01-06T04:54:36.777Z,7.78
2023-01-06T04:57:03.381Z,7.71
2023-01-06T04:59:29.764Z,7.66
2023-01-06T05:01:56.345Z,7.64
2023-01-06T05:04:22.803Z,7.60
2023-01-06T05:06:49.317Z,7.57
2023-01-06T05:09:15.778Z,7.55
2023-01-06T05:11:42.201Z,7.53
2023-01-06T05:14:08.643Z,7.51
2023-01-06T05:16:35.191Z,7.50
2023-01-06T05:19:01.970Z,7.49
2023-01-06T05:21:32.397Z,7.50
2023-01-06T05:23:59.842Z,7.46
2023-01-06T05:26:27.879Z,7.48
2023-01-06T05:28:54.913Z,7.49
2023-01-06T05:31:21.830Z,7.49
2023-01-06T05:33:48.521Z,7.49
2023-01-06T05:36:16.912Z,7.48
2023-01-06T05:38:43.637Z,7.49
2023-01-06T05:41:10.167Z,7.47
2023-01-06T05:43:37.229Z,7.44
2023-01-06T05:46:08.546Z,7.44
2023-01-06T05:48:35.360Z,7.45
2023-01-06T05:51:15.655Z,7.42
2023-01-06T05:53:44.066Z,7.39
2023-01-06T05:56:12.834Z,7.37
2023-01-06T05:58:42.667Z,7.35
2023-01-06T06:01:16.905Z,7.35
2023-01-06T06:03:43.551Z,7.34
2023-01-06T06:06:09.987Z,7.31
2023-01-06T06:08:36.519Z,7.28
2023-01-06T06:11:04.582Z,7.22
2023-01-06T06:13:31.448Z,7.20
2023-01-06T06:16:09.027Z,7.18
2023-01-06T06:18:40.722Z,7.16
2023-01-06T06:21:07.155Z,7.11
2023-01-06T06:23:33.569Z,7.07
2023-01-06T06:25:59.980Z,7.03
2023-01-06T06:28:26.718Z,7.00
2023-01-06T06:30:55.357Z,6.96
2023-01-06T06:33:22.022Z,6.92
2023-01-06T06:35:58.624Z,6.92
2023-01-06T06:38:25.076Z,6.86
2023-01-06T06:40:51.489Z,6.83
2023-01-06T06:43:17.931Z,6.79
2023-01-06T06:45:45.698Z,6.74
2023-01-06T06:48:12.215Z,6.72
2023-01-06T06:50:38.643Z,6.72
2023-01-06T06:53:05.460Z,6.68
2023-01-06T06:55:33.029Z,6.66
2023-01-06T06:57:59.459Z,6.59
2023-01-06T07:00:26.106Z,6.53
2023-01-06T07:02:52.608Z,6.51
2023-01-06T07:05:19.046Z,6.47
2023-01-06T07:07:45.794Z,6.42
2023-01-06T07:10:16.090Z,6.40
2023-01-06T07:12:42.687Z,6.38
2023-01-06T07:15:09.586Z,6.38
2023-01-06T07:17:36.004Z,6.35
2023-01-06T07:20:02.481Z,6.32
2023-01-06T07:22:29.071Z,6.29
2023-01-06T07:24:55.474Z,6.27
2023-01-06T07:27:21.874Z,6.26
2023-01-06T07:29:48.285Z,6.26
2023-01-06T07:32:14.691Z,6.27
2023-01-06T07:34:41.084Z,6.28
2023-01-06T07:37:07.488Z,6.29
2023-01-06T07:39:34.418Z,6.31
2023-01-06T07:42:00.861Z,6.30
2023-01-06T07:44:27.279Z,6.30
2023-01-06T07:46:53.704Z,6.29
2023-01-06T07:49:20.074Z,6.31
2023-01-06T07:51:46.520Z,6.32
2023-01-06T07:54:13.063Z,6.27
2023-01-06T07:56:39.636Z,6.26
2023-01-06T07:59:06.123Z,6.26
2023-01-06T08:01:32.772Z,6.30
2023-01-06T08:03:59.229Z,6.36
2023-01-06T08:06:25.704Z,6.41
2023-01-06T08:08:52.100Z,6.44
2023-01-06T08:11:18.735Z,6.46
2023-01-06T08:13:45.387Z,6.49
2023-01-06T08:16:12.421Z,6.54
2023-01-06T08:18:39.838Z,6.59
2023-01-06T08:21:10.832Z,6.63
2023-01-06T08:23:38.224Z,6.67
2023-01-06T08:26:07.164Z,6.71
2023-01-06T08:28:33.915Z,6.78
2023-01-06T08:31:00.510Z,6.82
2023-01-06T08:33:27.843Z,6.90
2023-01-06T08:36:02.189Z,6.97
2023-01-06T08:38:29.817Z,7.07
2023-01-06T08:40:57.793Z,7.18
2023-01-06T08:43:24.632Z,7.29
2023-01-06T08:45:51.305Z,7.37
2023-01-06T08:48:18.135Z,7.47
2023-01-06T08:50:44.709Z,7.56
2023-01-06T08:53:12.745Z,7.66
2023-01-06T08:55:40.774Z,7.77
2023-01-06T08:58:08.739Z,7.88
2023-01-06T09:00:36.639Z,7.96
2023-01-06T09:03:03.122Z,8.02
2023-01-06T09:05:29.699Z,8.11
2023-01-06T09:07:56.121Z,8.22
2023-01-06T09:10:22.724Z,8.32
2023-01-06T09:12:49.209Z,8.41
2023-01-06T09:15:15.775Z,8.43
2023-01-06T09:17:42.191Z,8.56
2023-01-06T09:20:09.657Z,8.61
2023-01-06T09:22:36.111Z,8.57
2023-01-06T09:25:03.243Z,8.55
2023-01-06T09:27:29.695Z,8.50
2023-01-06T09:29:56.097Z,8.54
2023-01-06T09:32:22.551Z,8.69
2023-01-06T09:34:48.956Z,8.92
2023-01-06T09:37:15.408Z,9.15
2023-01-06T09:39:41.783Z,9.21
2023-01-06T09:42:28.164Z,9.19
2023-01-06T09:45:03.205Z,9.13
2023-01-06T09:47:40.885Z,9.15
2023-01-06T09:50:16.040Z,9.21
2023-01-06T09:52:51.199Z,9.40
2023-01-06T09:55:37.884Z,9.52
2023-01-06T09:58:15.905Z,9.66
2023-01-06T10:00:48.059Z,9.83
2023-01-06T10:03:17.604Z,10.06
2023-01-06T10:06:01.979Z,10.24
2023-01-06T10:08:40.254Z,10.38
2023-01-06T10:11:47.166Z,10.48
2023-01-06T10:14:33.585Z,10.63
2023-01-06T10:17:21.003Z,10.75
2023-01-06T10:19:58.891Z,10.89
2023-01-06T10:22:45.525Z,10.98
2023-01-06T10:25:27.676Z,11.08
2023-01-06T10:28:02.343Z,10.91
2023-01-06T10:30:44.285Z,10.67
2023-01-06T10:33:28.081Z,10.44
2023-01-06T10:35:55.819Z,10.30
2023-01-06T10:38:28.567Z,10.20
2023-01-06T10:41:02.207Z,10.12
2023-01-06T10:43:29.358Z,10.09
2023-01-06T10:45:56.047Z,10.13
2023-01-06T10:48:27.058Z,10.17
2023-01-06T10:50:55.655Z,10.21
2023-01-06T10:53:22.939Z,10.18
2023-01-06T10:55:53.462Z,10.15
2023-01-06T10:58:34.231Z,10.12
2023-01-06T11:01:12.619Z,10.10
2023-01-06T11:03:45.733Z,10.07
2023-01-06T11:06:27.303Z,10.08
2023-01-06T11:08:53.898Z,10.07
2023-01-06T11:11:28.186Z,9.97
2023-01-06T11:14:01.229Z,9.99
2023-01-06T11:16:30.496Z,9.96
2023-01-06T11:19:00.745Z,10.02
2023-01-06T11:21:46.629Z,10.10
2023-01-06T11:24:18.738Z,10.17
2023-01-06T11:26:52.553Z,10.24
2023-01-06T11:29:25.467Z,10.34
2023-01-06T11:31:52.398Z,10.43
2023-01-06T11:34:23.771Z,10.60
2023-01-06T11:36:50.693Z,10.74
2023-01-06T11:39:28.719Z,10.77
2023-01-06T11:42:02.192Z,10.80
2023-01-06T11:44:38.303Z,10.76
2023-01-06T11:47:22.403Z,10.74
2023-01-06T11:49:58.995Z,10.70
2023-01-06T11:52:32.547Z,10.65
2023-01-06T11:55:05.015Z,10.55
2023-01-06T11:57:37.673Z,10.50
2023-01-06T12:00:33.940Z,10.43
2023-01-06T12:03:17.015Z,10.38
2023-01-06T12:06:04.399Z,10.34
2023-01-06T12:09:01.928Z,10.30
2023-01-06T12:11:47.066Z,10.31
2023-01-06T12:14:28.486Z,10.26
2023-01-06T12:17:14.422Z,10.24
2023-01-06T12:19:48.017Z,10.23
2023-01-06T12:22:35.066Z,10.22
2023-01-06T12:25:03.647Z,10.18
2023-01-06T12:27:36.033Z,10.16
2023-01-06T12:30:08.593Z,10.13
2023-01-06T12:32:40.861Z,10.08
2023-01-06T12:35:15.306Z,10.04
2023-01-06T12:37:48.256Z,10.02
2023-01-06T12:40:33.383Z,10.04
2023-01-06T12:43:28.189Z,9.99
2023-01-06T12:46:13.394Z,9.94
2023-01-06T12:48:50.874Z,9.90
2023-01-06T12:51:23.525Z,9.87
2023-01-06T12:53:59.763Z,9.81
2023-01-06T12:56:56.868Z,9.80
2023-01-06T12:59:29.555Z,9.78
2023-01-06T13:02:15.988Z,9.79
2023-01-06T13:04:56.451Z,9.80
2023-01-06T13:08:00.492Z,9.80
2023-01-06T13:10:59.428Z,9.79
2023-01-06T13:13:44.301Z,9.75
2023-01-06T13:16:16.572Z,9.73
2023-01-06T13:19:02.775Z,9.72
2023-01-06T13:21:32.440Z,9.71
2023-01-06T13:24:11.844Z,9.67
2023-01-06T13:27:04.372Z,9.64
2023-01-06T13:30:03.131Z,9.61
2023-01-06T13:33:08.270Z,9.60
2023-01-06T13:35:42.816Z,9.60
2023-01-06T13:38:15.197Z,9.61
2023-01-06T13:40:42.544Z,9.59
2023-01-06T13:43:26.479Z,9.65
2023-01-06T13:45:58.758Z,9.65
2023-01-06T13:48:30.105Z,9.64
2023-01-06T13:50:58.294Z,9.64
2023-01-06T13:53:24.792Z,9.63
2023-01-06T13:56:33.627Z,9.63
2023-01-06T13:59:25.007Z,9.61
2023-01-06T14:01:52.589Z,9.60
2023-01-06T14:04:39.348Z,9.59
2023-01-06T14:07:05.821Z,9.60
2023-01-06T14:09:36.425Z,9.55
2023-01-06T14:12:11.520Z,9.64
2023-01-06T14:14:38.993Z,9.64
2023-01-06T14:17:05.852Z,9.64
2023-01-06T14:19:38.480Z,9.61
2023-01-06T14:22:17.529Z,9.60
2023-01-06T14:24:49.820Z,9.56
2023-01-06T14:27:16.239Z,9.60
2023-01-06T14:29:42.979Z,9.58
2023-01-06T14:32:11.002Z,9.56
2023-01-06T14:34:42.744Z,9.54
2023-01-06T14:37:14.086Z,9.53
2023-01-06T14:39:42.536Z,9.50
2023-01-06T14:42:21.858Z,9.45
2023-01-06T14:44:51.879Z,9.43
2023-01-06T14:47:26.824Z,9.43
2023-01-06T14:50:02.109Z,9.45
2023-01-06T14:52:34.549Z,9.43
2023-01-06T14:55:03.237Z,9.40
2023-01-06T14:57:29.587Z,9.41
2023-01-06T15:00:17.886Z,9.44
2023-01-06T15:02:54.100Z,9.41
2023-01-06T15:05:25.379Z,9.41
2023-01-06T15:08:15.116Z,9.40
2023-01-06T15:10:49.936Z,9.37
2023-01-06T15:13:24.167Z,9.37
2023-01-06T15:15:59.422Z,9.36
2023-01-06T15:18:25.882Z,9.35
2023-01-06T15:20:55.081Z,9.37
2023-01-06T15:23:21.987Z,9.37
2023-01-06T15:25:50.599Z,9.38
2023-01-06T15:28:25.345Z,9.38
2023-01-06T15:30:52.320Z,9.36
2023-01-06T15:33:22.160Z,9.35
2023-01-06T15:35:50.989Z,9.35
2023-01-06T15:38:32.747Z,9.34
2023-01-06T15:40:59.824Z,9.31
2023-01-06T15:43:27.975Z,9.32
2023-01-06T15:46:09.780Z,9.25
2023-01-06T15:48:41.634Z,9.29
2023-01-06T15:51:14.306Z,9.29
2023-01-06T15:53:41.463Z,9.28
2023-01-06T15:56:18.533Z,9.28
2023-01-06T15:58:48.034Z,9.25
2023-01-06T16:01:17.495Z,9.23
2023-01-06T16:03:59.714Z,9.25
2023-01-06T16:06:31.490Z,9.24
2023-01-06T16:09:27.112Z,9.23
2023-01-06T16:11:59.077Z,9.22
2023-01-06T16:14:28.844Z,9.21
2023-01-06T16:17:09.322Z,9.20
2023-01-06T16:19:39.890Z,9.20
2023-01-06T16:22:18.255Z,9.20
2023-01-06T16:24:50.801Z,9.19
2023-01-06T16:27:24.899Z,9.21
2023-01-06T16:30:12.867Z,9.19
2023-01-06T16:32:41.445Z,9.12
2023-01-06T16:35:13.044Z,9.16
2023-01-06T16:37:39.577Z,9.16
2023-01-06T16:40:07.275Z,9.17
2023-01-06T16:42:45.331Z,9.19
2023-01-06T16:45:28.282Z,9.18
2023-01-06T16:47:55.601Z,9.20
2023-01-06T16:50:23.551Z,9.19
2023-01-06T16:53:10.233Z,9.19
2023-01-06T16:55:38.592Z,9.18
2023-01-06T16:58:28.332Z,9.18
2023-01-06T17:00:58.149Z,9.19
2023-01-06T17:03:34.776Z,9.19
2023-01-06T17:06:01.304Z,9.20
2023-01-06T17:08:29.822Z,9.20
2023-01-06T17:10:59.691Z,9.22
2023-01-06T17:13:35.942Z,9.25
2023-01-06T17:16:13.510Z,9.26
2023-01-06T17:18:49.954Z,9.29
2023-01-06T17:21:24.596Z,9.30
2023-01-06T17:24:02.424Z,9.32
2023-01-06T17:26:29.499Z,9.31
2023-01-06T17:28:57.663Z,9.30
2023-01-06T17:31:32.383Z,9.28
2023-01-06T17:34:09.653Z,9.30
2023-01-06T17:36:39.709Z,9.28
2023-01-06T17:39:26.458Z,9.29
2023-01-06T17:42:21.421Z,9.28
2023-01-06T17:44:58.999Z,9.25
2023-01-06T17:47:35.763Z,9.25
2023-01-06T17:50:19.012Z,9.25
2023-01-06T17:53:05.395Z,9.23
2023-01-06T17:55:43.533Z,9.20
2023-01-06T17:58:18.692Z,9.17
2023-01-06T18:00:46.274Z,9.14
2023-01-06T18:03:20.075Z,9.13
2023-01-06T18:05:49.565Z,9.14
2023-01-06T18:08:17.416Z,9.14
2023-01-06T18:10:49.684Z,9.13
2023-01-06T18:13:16.052Z,9.13
2023-01-06T18:15:43.936Z,9.14
2023-01-06T18:18:20.372Z,9.13
2023-01-06T18:20:47.930Z,9.10
2023-01-06T18:23:18.437Z,9.12
2023-01-06T18:25:44.887Z,9.06
2023-01-06T18:28:18.674Z,9.06
2023-01-06T18:30:46.606Z,9.02
2023-01-06T18:33:15.975Z,8.96
2023-01-06T18:35:43.387Z,8.96
2023-01-06T18:38:09.886Z,8.95
2023-01-06T18:40:38.285Z,8.96
2023-01-06T18:43:23.680Z,8.98
2023-01-06T18:45:52.957Z,8.99
2023-01-06T18:48:30.321Z,8.96
2023-01-06T18:50:59.021Z,8.97
2023-01-06T18:53:38.778Z,8.95
2023-01-06T18:56:26.818Z,8.97
2023-01-06T18:58:56.941Z,8.97
2023-01-06T19:01:26.679Z,8.97
2023-01-06T19:04:10.751Z,8.93
2023-01-06T19:06:41.891Z,8.94
2023-01-06T19:09:26.929Z,8.92
2023-01-06T19:12:32.680Z,8.92
2023-01-06T19:15:10.722Z,8.88
2023-01-06T19:17:40.999Z,8.88
2023-01-06T19:20:28.953Z,8.87
2023-01-06T19:22:56.908Z,8.86
2023-01-06T19:25:36.779Z,8.86
2023-01-06T19:28:16.635Z,8.84
2023-01-06T19:30:45.263Z,8.83
2023-01-06T19:33:26.743Z,8.81
2023-01-06T19:36:05.248Z,8.80
2023-01-06T19:38:36.780Z,8.78
2023-01-06T19:41:08.791Z,8.79
2023-01-06T19:43:35.920Z,8.80
2023-01-06T19:46:12.646Z,8.82
2023-01-06T19:48:41.263Z,8.81
2023-01-06T19:51:29.873Z,8.81
2023-01-06T19:54:00.044Z,8.81
2023-01-06T19:56:34.166Z,8.82
2023-01-06T19:59:03.776Z,8.82
2023-01-06T20:01:32.977Z,8.83
2023-01-06T20:03:59.929Z,8.86
2023-01-06T20:06:26.403Z,8.86
2023-01-06T20:08:53.346Z,8.86
2023-01-06T20:11:22.237Z,8.85
2023-01-06T20:13:48.979Z,8.87
2023-01-06T20:16:15.926Z,8.85
2023-01-06T20:18:42.583Z,8.82
2023-01-06T20:21:09.021Z,8.82
2023-01-06T20:23:35.402Z,8.83
2023-01-06T20:26:01.809Z,8.82
2023-01-06T20:28:28.202Z,8.84
2023-01-06T20:30:54.603Z,8.85
2023-01-06T20:33:21.002Z,8.85
2023-01-06T20:35:47.415Z,8.86
2023-01-06T20:38:13.859Z,8.88
2023-01-06T20:40:40.280Z,8.89
2023-01-06T20:43:07.225Z,8.90
2023-01-06T20:45:34.468Z,8.92
2023-01-06T20:48:01.030Z,8.90
2023-01-06T20:50:27.835Z,8.93
2023-01-06T20:52:54.796Z,8.93
2023-01-06T20:55:21.233Z,8.96
2023-01-06T20:57:47.624Z,8.98
2023-01-06T21:00:14.513Z,9.00
2023-01-06T21:02:41.094Z,8.93
2023-01-06T21:05:08.028Z,8.95
2023-01-06T21:07:35.013Z,8.91
2023-01-06T21:10:02.247Z,8.97
2023-01-06T21:12:28.640Z,8.97
2023-01-06T21:14:55.026Z,8.98
2023-01-06T21:17:21.782Z,8.97
2023-01-06T21:19:48.269Z,8.96
2023-01-06T21:22:14.719Z,8.95
2023-01-06T21:24:41.204Z,8.95
2023-01-06T21:27:07.632Z,8.91
2023-01-06T21:29:34.045Z,8.92
2023-01-06T21:32:00.476Z,8.92
2023-01-06T21:34:27.028Z,8.90
2023-01-06T21:36:53.454Z,8.92
2023-01-06T21:39:19.925Z,8.94
2023-01-06T21:42:04.983Z,8.95
2023-01-06T21:44:31.388Z,8.97
2023-01-06T21:46:59.613Z,8.94
2023-01-06T21:49:26.019Z,8.91
2023-01-06T21:51:54.562Z,8.88
2023-01-06T21:54:21.412Z,8.88
2023-01-06T21:56:47.942Z,8.85
2023-01-06T21:59:14.400Z,8.81
2023-01-06T22:01:40.923Z,8.81
2023-01-06T22:04:07.661Z,8.81
2023-01-06T22:06:36.279Z,8.83
2023-01-06T22:09:05.529Z,8.80
2023-01-06T22:11:33.352Z,8.79
2023-01-06T22:14:00.318Z,8.80
2023-01-06T22:16:27.508Z,8.80
2023-01-06T22:18:55.074Z,8.80
2023-01-06T22:21:21.838Z,8.82
2023-01-06T22:23:49.212Z,8.84
2023-01-06T22:26:15.651Z,8.88
2023-01-06T22:28:42.023Z,8.89
2023-01-06T22:31:08.450Z,8.92
2023-01-06T22:33:34.884Z,8.93
2023-01-06T22:36:01.290Z,8.92
2023-01-06T22:38:27.775Z,8.94
2023-01-06T22:40:54.203Z,8.84
2023-01-06T22:43:21.541Z,8.93
2023-01-06T22:45:54.942Z,8.93
2023-01-06T22:48:21.401Z,8.93
2023-01-06T22:50:56.494Z,8.93
2023-01-06T22:53:22.886Z,8.92
2023-01-06T22:56:03.467Z,8.95
2023-01-06T22:58:30.824Z,8.94
2023-01-06T23:00:57.304Z,8.94
2023-01-06T23:03:24.313Z,8.92
2023-01-06T23:06:05.169Z,8.93
2023-01-06T23:08:33.670Z,8.89
2023-01-06T23:11:03.549Z,8.87
2023-01-06T23:13:30.891Z,8.88
2023-01-06T23:16:03.491Z,8.88
2023-01-06T23:18:32.264Z,8.89
2023-01-06T23:21:02.071Z,8.90
2023-01-06T23:23:30.473Z,8.91
2023-01-06T23:26:05.064Z,8.92
2023-01-06T23:28:32.429Z,8.93
2023-01-06T23:31:28.769Z,8.92
2023-01-06T23:33:57.483Z,8.92
2023-01-06T23:36:27.123Z,8.90
2023-01-06T23:38:55.207Z,8.88
2023-01-06T23:41:24.094Z,8.87
2023-01-06T23:43:51.285Z,8.84
2023-01-06T23:46:20.506Z,8.84
2023-01-06T23:48:47.747Z,8.84
2023-01-06T23:51:15.543Z,8.82
2023-01-06T23:53:42.754Z,8.82
2023-01-06T23:56:12.694Z,8.85
2023-01-06T23:58:40.973Z,8.84
